sensor_id;sensor_type;location;lat;lon;timestamp;pressure;altitude;pressure_sealevel;temperature;humidity
44103;BME280;29769;42.178;24.742;2023-03-03T00:02:34;99917.34;;;5.50;100.00
44103;BME280;29769;42.178;24.742;2023-03-03T00:05:19;99952.34;;;5.71;100.00
44103;BME280;29769;42.178;24.742;2023-03-03T00:08:04;99953.28;;;5.79;100.00
44103;BME280;29769;42.178;24.742;2023-03-03T00:10:49;99942.88;;;5.84;100.00
44103;BME280;29769;42.178;24.742;2023-03-03T00:13:46;99944.63;;;5.85;100.00
44103;BME280;29769;42.178;24.742;2023-03-03T00:16:36;99930.66;;;5.80;100.00
44103;BME280;29769;42.178;24.742;2023-03-03T00:19:22;99928.94;;;5.83;100.00
44103;BME280;29769;42.178;24.742;2023-03-03T00:22:12;99923.75;;;5.85;100.00
44103;BME280;29769;42.178;24.742;2023-03-03T00:25:32;99915.94;;;5.87;100.00
44103;BME280;29769;42.178;24.742;2023-03-03T00:31:15;99908.09;;;5.87;100.00
44103;BME280;29769;42.178;24.742;2023-03-03T00:37:00;99899.47;;;5.94;100.00
44103;BME280;29769;42.178;24.742;2023-03-03T00:39:45;99900.34;;;5.97;100.00
44103;BME280;29769;42.178;24.742;2023-03-03T00:42:33;99895.97;;;5.96;100.00
44103;BME280;29769;42.178;24.742;2023-03-03T00:45:33;99899.50;;;6.04;100.00
44103;BME280;29769;42.178;24.742;2023-03-03T00:48:49;99889.97;;;6.08;100.00
44103;BME280;29769;42.178;24.742;2023-03-03T00:51:35;99888.22;;;6.10;100.00
44103;BME280;29769;42.178;24.742;2023-03-03T00:54:19;99878.72;;;6.16;100.00
44103;BME280;29769;42.178;24.742;2023-03-03T00:57:04;99876.97;;;6.18;100.00
44103;BME280;29769;42.178;24.742;2023-03-03T00:59:50;99869.09;;;6.14;100.00
44103;BME280;29769;42.178;24.742;2023-03-03T01:02:34;99868.28;;;6.24;100.00
44103;BME280;29769;42.178;24.742;2023-03-03T01:05:20;99874.41;;;6.29;100.00
44103;BME280;29769;42.178;24.742;2023-03-03T01:08:05;99872.69;;;6.30;100.00
44103;BME280;29769;42.178;24.742;2023-03-03T01:10:52;99872.69;;;6.34;100.00
44103;BME280;29769;42.178;24.742;2023-03-03T01:13:41;99863.09;;;6.32;100.00
44103;BME280;29769;42.178;24.742;2023-03-03T01:16:28;99792.31;;;5.80;100.00
44103;BME280;29769;42.178;24.742;2023-03-03T01:19:13;99856.91;;;6.10;100.00
44103;BME280;29769;42.178;24.742;2023-03-03T01:21:58;99865.63;;;6.18;100.00
44103;BME280;29769;42.178;24.742;2023-03-03T01:24:42;99867.38;;;6.16;100.00
44103;BME280;29769;42.178;24.742;2023-03-03T01:27:29;99819.38;;;5.91;100.00
44103;BME280;29769;42.178;24.742;2023-03-03T01:30:14;99870.03;;;6.20;100.00
44103;BME280;29769;42.178;24.742;2023-03-03T01:33:00;99868.31;;;6.25;100.00
44103;BME280;29769;42.178;24.742;2023-03-03T01:35:45;99863.97;;;6.34;100.00
44103;BME280;29769;42.178;24.742;2023-03-03T01:38:31;99863.13;;;6.38;100.00
44103;BME280;29769;42.178;24.742;2023-03-03T01:41:18;99861.41;;;6.40;100.00
44103;BME280;29769;42.178;24.742;2023-03-03T01:44:03;99862.28;;;6.40;100.00
44103;BME280;29769;42.178;24.742;2023-03-03T01:47:10;99867.44;;;6.30;100.00
44103;BME280;29769;42.178;24.742;2023-03-03T01:50:08;99869.16;;;6.28;100.00
44103;BME280;29769;42.178;24.742;2023-03-03T01:52:54;99855.19;;;6.16;100.00
44103;BME280;29769;42.178;24.742;2023-03-03T01:55:40;99862.19;;;6.22;100.00
44103;BME280;29769;42.178;24.742;2023-03-03T01:58:29;99856.09;;;6.20;100.00
44103;BME280;29769;42.178;24.742;2023-03-03T02:01:19;99864.78;;;6.19;100.00
44103;BME280;29769;42.178;24.742;2023-03-03T02:04:04;99853.50;;;6.28;100.00
44103;BME280;29769;42.178;24.742;2023-03-03T02:06:53;99849.19;;;6.36;100.00
44103;BME280;29769;42.178;24.742;2023-03-03T02:09:57;99850.88;;;6.28;100.00
44103;BME280;29769;42.178;24.742;2023-03-03T02:12:52;99849.19;;;6.36;100.00
44103;BME280;29769;42.178;24.742;2023-03-03T02:15:37;99850.91;;;6.37;100.00
44103;BME280;29769;42.178;24.742;2023-03-03T02:18:23;99850.09;;;6.39;100.00
44103;BME280;29769;42.178;24.742;2023-03-03T02:21:14;99848.31;;;6.37;100.00
44103;BME280;29769;42.178;24.742;2023-03-03T02:26:52;99851.81;;;6.37;100.00
44103;BME280;29769;42.178;24.742;2023-03-03T02:29:38;99838.72;;;6.27;100.00
44103;BME280;29769;42.178;24.742;2023-03-03T02:32:24;99832.56;;;6.20;100.00
44103;BME280;29769;42.178;24.742;2023-03-03T02:35:39;99843.91;;;6.17;100.00
44103;BME280;29769;42.178;24.742;2023-03-03T02:38:43;99825.56;;;6.07;100.00
44103;BME280;29769;42.178;24.742;2023-03-03T02:41:41;99838.63;;;6.08;100.00
44103;BME280;29769;42.178;24.742;2023-03-03T02:44:30;99829.00;;;6.04;100.00
44103;BME280;29769;42.178;24.742;2023-03-03T02:47:16;99827.28;;;6.06;100.00
44103;BME280;29769;42.178;24.742;2023-03-03T02:50:01;99829.06;;;6.15;100.00
44103;BME280;29769;42.178;24.742;2023-03-03T02:52:46;99839.56;;;6.21;100.00
44103;BME280;29769;42.178;24.742;2023-03-03T02:55:31;99841.31;;;6.25;100.00
44103;BME280;29769;42.178;24.742;2023-03-03T02:58:15;99837.84;;;6.26;100.00
44103;BME280;29769;42.178;24.742;2023-03-03T03:01:00;99835.25;;;6.31;100.00
44103;BME280;29769;42.178;24.742;2023-03-03T03:03:45;99838.72;;;6.30;100.00
44103;BME280;29769;42.178;24.742;2023-03-03T03:06:33;99836.13;;;6.31;100.00
44103;BME280;29769;42.178;24.742;2023-03-03T03:09:21;99834.34;;;6.27;100.00
44103;BME280;29769;42.178;24.742;2023-03-03T03:12:08;99837.81;;;6.28;100.00
44103;BME280;29769;42.178;24.742;2023-03-03T03:14:53;99833.50;;;6.27;100.00
44103;BME280;29769;42.178;24.742;2023-03-03T03:17:38;99834.34;;;6.32;100.00
44103;BME280;29769;42.178;24.742;2023-03-03T03:20:24;99811.69;;;6.23;100.00
44103;BME280;29769;42.178;24.742;2023-03-03T03:23:09;99812.56;;;6.17;100.00
44103;BME280;29769;42.178;24.742;2023-03-03T03:25:54;99829.13;;;6.25;100.00
44103;BME280;29769;42.178;24.742;2023-03-03T03:28:43;99829.13;;;6.25;100.00
44103;BME280;29769;42.178;24.742;2023-03-03T03:31:28;99835.25;;;6.37;100.00
44103;BME280;29769;42.178;24.742;2023-03-03T03:34:13;99814.34;;;6.31;100.00
44103;BME280;29769;42.178;24.742;2023-03-03T03:36:58;99836.13;;;6.36;100.00
44103;BME280;29769;42.178;24.742;2023-03-03T03:39:45;99831.75;;;6.36;100.00
44103;BME280;29769;42.178;24.742;2023-03-03T03:42:30;99840.50;;;6.38;100.00
44103;BME280;29769;42.178;24.742;2023-03-03T03:45:15;99833.53;;;6.42;100.00
44103;BME280;29769;42.178;24.742;2023-03-03T03:48:04;99825.72;;;6.48;100.00
44103;BME280;29769;42.178;24.742;2023-03-03T03:50:50;99826.59;;;6.48;100.00
44103;BME280;29769;42.178;24.742;2023-03-03T03:53:35;99823.09;;;6.45;100.00
44103;BME280;29769;42.178;24.742;2023-03-03T03:56:20;99829.19;;;6.47;100.00
44103;BME280;29769;42.178;24.742;2023-03-03T03:59:08;99823.09;;;6.45;100.00
44103;BME280;29769;42.178;24.742;2023-03-03T04:01:54;99816.09;;;6.41;100.00
44103;BME280;29769;42.178;24.742;2023-03-03T04:04:40;99823.06;;;6.31;100.00
44103;BME280;29769;42.178;24.742;2023-03-03T04:07:25;99829.13;;;6.29;100.00
44103;BME280;29769;42.178;24.742;2023-03-03T04:10:10;99829.09;;;6.24;100.00
44103;BME280;29769;42.178;24.742;2023-03-03T04:12:56;99831.69;;;6.22;100.00
44103;BME280;29769;42.178;24.742;2023-03-03T04:15:42;99826.50;;;6.21;100.00
44103;BME280;29769;42.178;24.742;2023-03-03T04:18:27;99823.00;;;6.17;100.00
44103;BME280;29769;42.178;24.742;2023-03-03T04:21:13;99820.38;;;6.13;100.00
44103;BME280;29769;42.178;24.742;2023-03-03T04:23:58;99827.38;;;6.21;100.00
44103;BME280;29769;42.178;24.742;2023-03-03T04:26:45;99823.00;;;6.20;100.00
44103;BME280;29769;42.178;24.742;2023-03-03T04:29:30;99820.38;;;6.17;100.00
44103;BME280;29769;42.178;24.742;2023-03-03T04:32:14;99814.22;;;6.09;100.00
44103;BME280;29769;42.178;24.742;2023-03-03T04:35:03;99809.00;;;6.06;100.00
44103;BME280;29769;42.178;24.742;2023-03-03T04:37:48;99819.50;;;6.12;100.00
44103;BME280;29769;42.178;24.742;2023-03-03T04:40:34;99815.13;;;6.08;100.00
44103;BME280;29769;42.178;24.742;2023-03-03T04:43:20;99819.50;;;6.18;100.00
44103;BME280;29769;42.178;24.742;2023-03-03T04:46:05;99804.69;;;6.13;100.00
44103;BME280;29769;42.178;24.742;2023-03-03T04:48:51;99818.66;;;6.27;100.00
44103;BME280;29769;42.178;24.742;2023-03-03T04:51:36;99802.09;;;6.19;100.00
44103;BME280;29769;42.178;24.742;2023-03-03T04:54:22;99816.91;;;6.28;100.00
44103;BME280;29769;42.178;24.742;2023-03-03T04:57:07;99796.00;;;6.20;100.00
44103;BME280;29769;42.178;24.742;2023-03-03T04:59:53;99816.03;;;6.27;100.00
44103;BME280;29769;42.178;24.742;2023-03-03T05:02:39;99821.25;;;6.19;100.00
44103;BME280;29769;42.178;24.742;2023-03-03T05:05:24;99809.00;;;6.09;100.00
44103;BME280;29769;42.178;24.742;2023-03-03T05:08:09;99824.72;;;6.15;100.00
44103;BME280;29769;42.178;24.742;2023-03-03T05:10:54;99808.16;;;6.12;100.00
44103;BME280;29769;42.178;24.742;2023-03-03T05:13:39;99820.41;;;6.25;100.00
44103;BME280;29769;42.178;24.742;2023-03-03T05:16:24;99828.25;;;6.27;100.00
44103;BME280;29769;42.178;24.742;2023-03-03T05:19:08;99829.09;;;6.24;100.00
44103;BME280;29769;42.178;24.742;2023-03-03T05:21:53;99824.75;;;6.21;100.00
44103;BME280;29769;42.178;24.742;2023-03-03T05:24:38;99824.75;;;6.21;100.00
44103;BME280;29769;42.178;24.742;2023-03-03T05:27:23;99827.38;;;6.26;100.00
44103;BME280;29769;42.178;24.742;2023-03-03T05:30:09;99835.25;;;6.35;100.00
44103;BME280;29769;42.178;24.742;2023-03-03T05:32:54;99819.56;;;6.37;100.00
44103;BME280;29769;42.178;24.742;2023-03-03T05:35:39;99823.06;;;6.36;100.00
44103;BME280;29769;42.178;24.742;2023-03-03T05:38:24;99828.31;;;6.39;100.00
44103;BME280;29769;42.178;24.742;2023-03-03T05:41:09;99830.06;;;6.46;100.00
44103;BME280;29769;42.178;24.742;2023-03-03T05:43:54;99830.09;;;6.52;100.00
44103;BME280;29769;42.178;24.742;2023-03-03T05:46:39;99830.13;;;6.58;100.00
44103;BME280;29769;42.178;24.742;2023-03-03T05:49:26;99814.41;;;6.53;100.00
44103;BME280;29769;42.178;24.742;2023-03-03T05:52:11;99839.75;;;6.76;100.00
44103;BME280;29769;42.178;24.742;2023-03-03T05:54:56;99833.66;;;6.81;100.00
44103;BME280;29769;42.178;24.742;2023-03-03T05:57:40;99844.97;;;6.83;100.00
44103;BME280;29769;42.178;24.742;2023-03-03T06:00:25;99765.63;;;6.48;100.00
44103;BME280;29769;42.178;24.742;2023-03-03T06:03:10;99839.78;;;6.89;100.00
44103;BME280;29769;42.178;24.742;2023-03-03T06:05:55;99842.38;;;6.95;100.00
44103;BME280;29769;42.178;24.742;2023-03-03T06:08:40;99843.28;;;6.99;100.00
44103;BME280;29769;42.178;24.742;2023-03-03T06:11:25;99842.41;;;7.01;100.00
44103;BME280;29769;42.178;24.742;2023-03-03T06:14:10;99828.44;;;7.02;100.00
44103;BME280;29769;42.178;24.742;2023-03-03T06:16:54;99849.38;;;7.19;100.00
44103;BME280;29769;42.178;24.742;2023-03-03T06:19:41;99845.91;;;7.31;100.00
44103;BME280;29769;42.178;24.742;2023-03-03T06:22:26;99831.94;;;7.23;100.00
44103;BME280;29769;42.178;24.742;2023-03-03T06:25:11;99848.53;;;7.40;100.00
44103;BME280;29769;42.178;24.742;2023-03-03T06:27:56;99861.63;;;7.58;100.00
44103;BME280;29769;42.178;24.742;2023-03-03T06:30:41;99862.47;;;7.69;100.00
44103;BME280;29769;42.178;24.742;2023-03-03T06:33:26;99863.31;;;7.73;100.00
44103;BME280;29769;42.178;24.742;2023-03-03T06:36:11;99865.94;;;7.79;100.00
44103;BME280;29769;42.178;24.742;2023-03-03T06:38:56;99864.22;;;7.85;100.00
44103;BME280;29769;42.178;24.742;2023-03-03T06:41:41;99842.38;;;7.85;100.00
44103;BME280;29769;42.178;24.742;2023-03-03T06:44:26;99858.91;;;8.10;100.00
44103;BME280;29769;42.178;24.742;2023-03-03T06:47:10;99856.25;;;8.16;100.00
44103;BME280;29769;42.178;24.742;2023-03-03T06:49:55;99835.31;;;8.10;100.00
44103;BME280;29769;42.178;24.742;2023-03-03T06:52:40;99858.84;;;8.23;100.00
44103;BME280;29769;42.178;24.742;2023-03-03T06:55:25;99850.13;;;8.26;100.00
44103;BME280;29769;42.178;24.742;2023-03-03T06:58:18;99863.22;;;8.32;100.00
44103;BME280;29769;42.178;24.742;2023-03-03T07:01:16;99857.06;;;8.42;100.00
44103;BME280;29769;42.178;24.742;2023-03-03T07:04:10;99856.16;;;8.52;100.00
44103;BME280;29769;42.178;24.742;2023-03-03T07:06:57;99856.16;;;8.54;100.00
44103;BME280;29769;42.178;24.742;2023-03-03T07:09:44;99849.13;;;8.60;100.00
44103;BME280;29769;42.178;24.742;2023-03-03T07:12:30;99849.97;;;8.67;100.00
44103;BME280;29769;42.178;24.742;2023-03-03T07:15:29;99850.88;;;8.63;100.00
44103;BME280;29769;42.178;24.742;2023-03-03T07:21:22;99854.41;;;8.51;100.00
44103;BME280;29769;42.178;24.742;2023-03-03T07:24:26;99838.69;;;8.49;100.00
44103;BME280;29769;42.178;24.742;2023-03-03T07:27:23;99852.63;;;8.62;100.00
44103;BME280;29769;42.178;24.742;2023-03-03T07:32:58;99845.66;;;8.58;100.00
44103;BME280;29769;42.178;24.742;2023-03-03T07:35:44;99853.53;;;8.54;100.00
44103;BME280;29769;42.178;24.742;2023-03-03T07:38:52;99850.91;;;8.58;100.00
44103;BME280;29769;42.178;24.742;2023-03-03T07:41:37;99850.00;;;8.59;100.00
44103;BME280;29769;42.178;24.742;2023-03-03T07:44:36;99847.41;;;8.55;100.00
44103;BME280;29769;42.178;24.742;2023-03-03T07:50:27;99851.88;;;8.33;100.00
44103;BME280;29769;42.178;24.742;2023-03-03T07:53:29;99832.69;;;8.11;100.00
44103;BME280;29769;42.178;24.742;2023-03-03T07:59:21;99847.59;;;7.83;100.00
44103;BME280;29769;42.178;24.742;2023-03-03T08:02:33;99855.44;;;7.95;100.00
44103;BME280;29769;42.178;24.742;2023-03-03T08:11:08;99847.63;;;7.85;100.00
44103;BME280;29769;42.178;24.742;2023-03-03T08:13:54;99837.94;;;8.11;100.00
44103;BME280;29769;42.178;24.742;2023-03-03T08:16:40;99831.75;;;8.27;100.00
44103;BME280;29769;42.178;24.742;2023-03-03T08:19:25;99823.00;;;8.36;100.00
44103;BME280;29769;42.178;24.742;2023-03-03T08:22:14;99833.53;;;8.33;100.00
44103;BME280;29769;42.178;24.742;2023-03-03T08:25:00;99813.50;;;8.12;100.00
44103;BME280;29769;42.178;24.742;2023-03-03T08:27:45;99809.09;;;8.16;100.00
44103;BME280;29769;42.178;24.742;2023-03-03T08:30:31;99819.56;;;8.31;100.00
44103;BME280;29769;42.178;24.742;2023-03-03T08:33:16;99810.81;;;8.33;100.00
44103;BME280;29769;42.178;24.742;2023-03-03T08:36:01;99811.69;;;8.32;100.00
44103;BME280;29769;42.178;24.742;2023-03-03T08:38:46;99800.25;;;8.47;100.00
44103;BME280;29769;42.178;24.742;2023-03-03T08:41:31;99803.66;;;8.64;100.00
44103;BME280;29769;42.178;24.742;2023-03-03T08:44:15;99800.97;;;8.75;100.00
44103;BME280;29769;42.178;24.742;2023-03-03T08:47:00;99800.00;;;8.88;100.00
44103;BME280;29769;42.178;24.742;2023-03-03T08:49:45;99800.78;;;9.04;100.00
44103;BME280;29769;42.178;24.742;2023-03-03T08:52:30;99799.78;;;9.18;100.00
44103;BME280;29769;42.178;24.742;2023-03-03T08:55:15;99804.19;;;9.16;100.00
44103;BME280;29769;42.178;24.742;2023-03-03T08:58:00;99801.50;;;9.22;100.00
44103;BME280;29769;42.178;24.742;2023-03-03T09:00:45;99801.44;;;9.27;100.00
44103;BME280;29769;42.178;24.742;2023-03-03T09:03:30;99763.09;;;9.11;100.00
44103;BME280;29769;42.178;24.742;2023-03-03T09:06:15;99805.88;;;9.23;100.00
44103;BME280;29769;42.178;24.742;2023-03-03T09:08:59;99803.19;;;9.28;100.00
44103;BME280;29769;42.178;24.742;2023-03-03T09:11:44;99797.13;;;9.24;100.00
44103;BME280;29769;42.178;24.742;2023-03-03T09:14:30;99782.28;;;9.20;100.00
44103;BME280;29769;42.178;24.742;2023-03-03T09:17:34;99791.88;;;9.26;100.00
44103;BME280;29769;42.178;24.742;2023-03-03T09:23:39;99799.28;;;8.66;100.00
44103;BME280;29769;42.178;24.742;2023-03-03T09:29:31;99790.88;;;7.78;100.00
44103;BME280;29769;42.178;24.742;2023-03-03T09:32:30;99764.81;;;7.35;100.00
44103;BME280;29769;42.178;24.742;2023-03-03T09:35:36;99786.59;;;7.48;100.00
44103;BME280;29769;42.178;24.742;2023-03-03T09:38:29;99777.88;;;7.43;100.00
44103;BME280;29769;42.178;24.742;2023-03-03T10:12:00;99773.53;;;7.07;100.00
44103;BME280;29769;42.178;24.742;2023-03-03T10:18:41;99775.25;;;6.67;100.00
44103;BME280;29769;42.178;24.742;2023-03-03T10:21:39;99771.75;;;6.79;100.00
44103;BME280;29769;42.178;24.742;2023-03-03T10:24:36;99770.91;;;6.84;100.00
44103;BME280;29769;42.178;24.742;2023-03-03T10:30:37;99762.19;;;6.82;100.00
44103;BME280;29769;42.178;24.742;2023-03-03T10:33:48;99755.19;;;6.70;100.00
44103;BME280;29769;42.178;24.742;2023-03-03T10:36:50;99744.75;;;6.74;100.00
44103;BME280;29769;42.178;24.742;2023-03-03T10:45:39;99750.88;;;7.07;100.00
44103;BME280;29769;42.178;24.742;2023-03-03T10:51:21;99738.63;;;7.34;100.00
44103;BME280;29769;42.178;24.742;2023-03-03T10:57:26;99732.53;;;7.23;100.00
44103;BME280;29769;42.178;24.742;2023-03-03T11:06:24;99716.84;;;7.15;100.00
44103;BME280;29769;42.178;24.742;2023-03-03T11:33:21;99697.16;;;8.48;100.00
44103;BME280;29769;42.178;24.742;2023-03-03T11:36:37;99696.31;;;8.43;100.00
44103;BME280;29769;42.178;24.742;2023-03-03T11:39:24;99698.94;;;8.37;100.00
44103;BME280;29769;42.178;24.742;2023-03-03T11:42:24;99679.63;;;8.50;100.00
44103;BME280;29769;42.178;24.742;2023-03-03T11:45:18;99687.50;;;8.50;100.00
44103;BME280;29769;42.178;24.742;2023-03-03T11:54:25;99674.81;;;9.85;100.00
44103;BME280;29769;42.178;24.742;2023-03-03T11:57:22;99667.06;;;9.74;100.00
44103;BME280;29769;42.178;24.742;2023-03-03T12:00:19;99668.16;;;9.55;100.00
44103;BME280;29769;42.178;24.742;2023-03-03T12:09:51;99664.59;;;10.31;100.00
44103;BME280;29769;42.178;24.742;2023-03-03T12:12:54;99659.41;;;10.26;100.00
44103;BME280;29769;42.178;24.742;2023-03-03T12:21:52;99659.06;;;9.81;100.00
44103;BME280;29769;42.178;24.742;2023-03-03T12:27:57;99650.88;;;10.07;100.00
44103;BME280;29769;42.178;24.742;2023-03-03T12:33:54;99644.09;;;10.51;100.00
44103;BME280;29769;42.178;24.742;2023-03-03T12:36:49;99649.84;;;10.20;100.00
44103;BME280;29769;42.178;24.742;2023-03-03T12:39:43;99650.97;;;10.61;100.00
44103;BME280;29769;42.178;24.742;2023-03-03T12:45:58;99648.88;;;10.26;100.00
44103;BME280;29769;42.178;24.742;2023-03-03T12:48:47;99656.50;;;9.78;100.00
44103;BME280;29769;42.178;24.742;2023-03-03T12:52:16;99660.31;;;9.52;100.00
44103;BME280;29769;42.178;24.742;2023-03-03T12:54:58;99652.50;;;9.46;100.00
44103;BME280;29769;42.178;24.742;2023-03-03T12:58:11;99643.91;;;9.34;100.00
44103;BME280;29769;42.178;24.742;2023-03-03T13:07:27;99637.63;;;9.46;100.00
44103;BME280;29769;42.178;24.742;2023-03-03T13:10:26;99642.50;;;9.78;100.00
44103;BME280;29769;42.178;24.742;2023-03-03T13:13:40;99642.94;;;10.09;100.00
44103;BME280;29769;42.178;24.742;2023-03-03T13:16:33;99636.63;;;10.23;100.00
44103;BME280;29769;42.178;24.742;2023-03-03T13:19:26;99634.94;;;10.21;100.00
44103;BME280;29769;42.178;24.742;2023-03-03T13:22:21;99642.28;;;9.95;100.00
44103;BME280;29769;42.178;24.742;2023-03-03T13:28:33;99630.84;;;9.97;100.00
44103;BME280;29769;42.178;24.742;2023-03-03T13:31:21;99637.84;;;9.97;100.00
44103;BME280;29769;42.178;24.742;2023-03-03T13:34:36;99629.09;;;9.99;100.00
44103;BME280;29769;42.178;24.742;2023-03-03T13:40:25;99634.75;;;10.32;100.00
44103;BME280;29769;42.178;24.742;2023-03-03T13:43:21;99629.84;;;10.06;100.00
44103;BME280;29769;42.178;24.742;2023-03-03T13:46:15;99624.72;;;9.97;100.00
44103;BME280;29769;42.178;24.742;2023-03-03T13:49:23;99624.31;;;9.63;100.00
44103;BME280;29769;42.178;24.742;2023-03-03T13:52:13;99627.28;;;9.35;100.00
44103;BME280;29769;42.178;24.742;2023-03-03T13:55:13;99621.72;;;9.60;100.00
44103;BME280;29769;42.178;24.742;2023-03-03T14:01:15;99569.56;;;9.31;100.00
44103;BME280;29769;42.178;24.742;2023-03-03T14:04:13;99618.25;;;9.58;100.00
44103;BME280;29769;42.178;24.742;2023-03-03T14:07:13;99614.41;;;9.81;100.00
44103;BME280;29769;42.178;24.742;2023-03-03T14:10:11;99610.75;;;9.95;100.00
44103;BME280;29769;42.178;24.742;2023-03-03T14:13:18;99599.13;;;9.45;100.00
44103;BME280;29769;42.178;24.742;2023-03-03T14:16:10;99618.44;;;9.41;100.00
44103;BME280;29769;42.178;24.742;2023-03-03T14:19:04;99608.34;;;9.05;100.00
44103;BME280;29769;42.178;24.742;2023-03-03T14:25:06;99612.91;;;8.87;100.00
44103;BME280;29769;42.178;24.742;2023-03-03T14:28:19;99619.94;;;8.84;100.00
44103;BME280;29769;42.178;24.742;2023-03-03T14:36:59;99610.56;;;8.54;100.00
44103;BME280;29769;42.178;24.742;2023-03-03T14:43:04;99594.81;;;8.59;100.00
44103;BME280;29769;42.178;24.742;2023-03-03T14:49:43;99600.19;;;8.43;100.00
44103;BME280;29769;42.178;24.742;2023-03-03T14:52:29;99599.38;;;8.34;100.00
44103;BME280;29769;42.178;24.742;2023-03-03T14:55:32;99599.38;;;8.34;100.00
44103;BME280;29769;42.178;24.742;2023-03-03T15:01:30;99592.47;;;8.19;100.00
44103;BME280;29769;42.178;24.742;2023-03-03T15:07:22;99599.66;;;7.88;100.00
44103;BME280;29769;42.178;24.742;2023-03-03T15:10:11;99603.94;;;8.00;100.00
44103;BME280;29769;42.178;24.742;2023-03-03T15:12:57;99600.38;;;8.15;100.00
44103;BME280;29769;42.178;24.742;2023-03-03T15:15:51;99595.97;;;8.21;100.00
44103;BME280;29769;42.178;24.742;2023-03-03T15:24:58;99602.91;;;8.30;100.00
44103;BME280;29769;42.178;24.742;2023-03-03T15:28:37;99611.75;;;8.11;100.00
44103;BME280;29769;42.178;24.742;2023-03-03T15:37:04;99610.16;;;7.88;100.00
44103;BME280;29769;42.178;24.742;2023-03-03T15:39:57;99610.16;;;7.90;100.00
44103;BME280;29769;42.178;24.742;2023-03-03T15:51:41;99623.19;;;7.99;100.00
44103;BME280;29769;42.178;24.742;2023-03-03T15:54:42;99622.22;;;8.11;100.00
44103;BME280;29769;42.178;24.742;2023-03-03T16:03:38;99626.53;;;8.19;100.00
44103;BME280;29769;42.178;24.742;2023-03-03T16:06:44;99625.69;;;8.16;100.00
44103;BME280;29769;42.178;24.742;2023-03-03T16:15:44;99651.19;;;7.86;100.00
44103;BME280;29769;42.178;24.742;2023-03-03T16:24:37;99652.19;;;7.58;100.00
44103;BME280;29769;42.178;24.742;2023-03-03T16:34:06;99643.31;;;7.86;100.00
44103;BME280;29769;42.178;24.742;2023-03-03T16:37:17;99653.81;;;7.89;100.00
44103;BME280;29769;42.178;24.742;2023-03-03T16:43:17;99655.63;;;7.72;100.00
44103;BME280;29769;42.178;24.742;2023-03-03T16:46:20;99659.13;;;7.68;100.00
44103;BME280;29769;42.178;24.742;2023-03-03T16:49:26;99665.25;;;7.66;100.00
44103;BME280;29769;42.178;24.742;2023-03-03T16:52:14;99670.47;;;7.64;100.00
44103;BME280;29769;42.178;24.742;2023-03-03T17:05:11;99671.41;;;7.58;100.00
44103;BME280;29769;42.178;24.742;2023-03-03T17:10:48;99675.84;;;7.25;100.00
44103;BME280;29769;42.178;24.742;2023-03-03T17:20:02;99683.72;;;7.00;100.00
44103;BME280;29769;42.178;24.742;2023-03-03T17:23:02;99696.81;;;6.93;100.00
44103;BME280;29769;42.178;24.742;2023-03-03T17:26:11;99697.72;;;6.90;100.00
44103;BME280;29769;42.178;24.742;2023-03-03T17:29:20;99703.78;;;6.88;100.00
44103;BME280;29769;42.178;24.742;2023-03-03T17:32:14;99710.78;;;6.84;100.00
44103;BME280;29769;42.178;24.742;2023-03-03T17:50:56;99727.28;;;6.59;100.00
44103;BME280;29769;42.178;24.742;2023-03-03T17:57:02;99733.38;;;6.46;100.00
44103;BME280;29769;42.178;24.742;2023-03-03T18:23:44;99748.03;;;5.94;100.00
44103;BME280;29769;42.178;24.742;2023-03-03T18:26:41;99742.72;;;5.83;100.00
44103;BME280;29769;42.178;24.742;2023-03-03T18:29:27;99740.09;;;5.78;100.00
44103;BME280;29769;42.178;24.742;2023-03-03T18:32:19;99752.41;;;6.01;100.00
44103;BME280;29769;42.178;24.742;2023-03-03T18:35:35;99747.19;;;6.05;100.00
44103;BME280;29769;42.178;24.742;2023-03-03T18:38:26;99751.56;;;6.03;100.00
44103;BME280;29769;42.178;24.742;2023-03-03T18:41:26;99751.56;;;6.08;100.00
44103;BME280;29769;42.178;24.742;2023-03-03T18:44:28;99759.38;;;6.05;100.00
44103;BME280;29769;42.178;24.742;2023-03-03T18:47:13;99755.88;;;6.01;100.00
44103;BME280;29769;42.178;24.742;2023-03-03T18:50:13;99756.75;;;5.97;100.00
44103;BME280;29769;42.178;24.742;2023-03-03T18:53:07;99769.81;;;6.00;100.00
44103;BME280;29769;42.178;24.742;2023-03-03T18:55:57;99769.81;;;5.97;100.00
44103;BME280;29769;42.178;24.742;2023-03-03T18:58:43;99760.25;;;6.04;100.00
44103;BME280;29769;42.178;24.742;2023-03-03T19:04:18;99763.75;;;6.07;100.00
44103;BME280;29769;42.178;24.742;2023-03-03T19:09:59;99761.97;;;6.00;100.00
44103;BME280;29769;42.178;24.742;2023-03-03T19:12:53;99768.03;;;5.93;100.00
44103;BME280;29769;42.178;24.742;2023-03-03T19:15:45;99776.63;;;5.81;100.00
44103;BME280;29769;42.178;24.742;2023-03-03T19:21:30;99768.75;;;5.66;100.00
44103;BME280;29769;42.178;24.742;2023-03-03T19:24:31;99766.16;;;5.69;100.00
44103;BME280;29769;42.178;24.742;2023-03-03T19:27:28;99770.50;;;5.69;100.00
44103;BME280;29769;42.178;24.742;2023-03-03T19:33:44;99779.06;;;5.47;100.00
44103;BME280;29769;42.178;24.742;2023-03-03T19:36:42;99779.94;;;5.44;100.00
44103;BME280;29769;42.178;24.742;2023-03-03T19:45:24;99788.50;;;5.26;100.00
44103;BME280;29769;42.178;24.742;2023-03-03T19:54:34;99795.19;;;4.94;100.00
44103;BME280;29769;42.178;24.742;2023-03-03T20:00:33;99788.94;;;4.78;100.00
44103;BME280;29769;42.178;24.742;2023-03-03T20:03:37;99792.38;;;4.71;100.00
44103;BME280;29769;42.178;24.742;2023-03-03T20:06:44;99787.94;;;4.63;100.00
44103;BME280;29769;42.178;24.742;2023-03-03T20:09:37;99794.00;;;4.62;100.00
44103;BME280;29769;42.178;24.742;2023-03-03T20:12:30;99799.13;;;4.56;100.00